Time;durP1;ratioP1;P1;durP2;ratioP2;P2;SDS_P1;SDS_P2;PMS_P1;PMS_P2;Temp;Humidity;BMP_temperature;BMP_pressure;BME280_temperature;BME280_humidity;BME280_pressure;Samples;Min_cycle;Max_cycle;Signal;HPM_P1;HPM_P2
2022/06/15 00:01:25;;;;;;;7.93;2.03;;;;;;;16.88;65.40;96703.56;5095321;28;20447;-63
2022/06/15 00:03:51;;;;;;;6.13;2.58;;;;;;;16.77;65.39;96701.56;5096145;28;20028;-63
2022/06/15 00:06:18;;;;;;;4.05;1.98;;;;;;;16.75;65.99;96705.25;5095977;28;20024;-63
2022/06/15 00:08:45;;;;;;;9.40;2.03;;;;;;;16.57;65.68;96702.78;5095873;28;20051;-62
2022/06/15 00:11:12;;;;;;;10.93;2.20;;;;;;;16.41;66.31;96711.59;5096009;28;20492;-63
2022/06/15 00:13:38;;;;;;;3.58;2.50;;;;;;;16.32;66.70;96713.94;5096033;28;20070;-63
2022/06/15 00:16:05;;;;;;;15.23;2.30;;;;;;;16.25;66.94;96705.50;5095653;28;20028;-62
2022/06/15 00:18:33;;;;;;;7.93;2.47;;;;;;;16.20;67.59;96708.44;5095841;28;20032;-62
2022/06/15 00:20:59;;;;;;;5.63;2.17;;;;;;;16.15;67.61;96707.84;5095746;28;20533;-62
2022/06/15 00:23:27;;;;;;;11.05;2.70;;;;;;;16.06;68.10;96708.38;5095732;28;20393;-63
2022/06/15 00:25:53;;;;;;;8.80;2.50;;;;;;;15.95;68.06;96711.63;5095679;28;20035;-63
2022/06/15 00:28:21;;;;;;;3.70;2.40;;;;;;;15.78;68.44;96705.50;5095591;28;20020;-63
2022/06/15 00:30:49;;;;;;;5.65;2.25;;;;;;;15.64;69.13;96704.50;5095520;28;20020;-63
2022/06/15 00:33:15;;;;;;;7.63;2.17;;;;;;;15.60;68.86;96700.34;5095548;28;20102;-62
2022/06/15 00:35:41;;;;;;;7.28;2.35;;;;;;;15.48;68.92;96699.22;5095543;28;20028;-62
2022/06/15 00:38:07;;;;;;;5.15;2.42;;;;;;;15.35;69.12;96692.94;5095545;28;20385;-62
2022/06/15 00:40:34;;;;;;;4.30;2.30;;;;;;;15.28;68.53;96700.31;5095453;28;20028;-62
2022/06/15 00:43:00;;;;;;;6.00;2.40;;;;;;;15.20;68.98;96694.63;5095286;28;20112;-62
2022/06/15 00:45:26;;;;;;;10.93;3.03;;;;;;;15.12;69.86;96698.53;5095323;28;20107;-63
2022/06/15 00:47:52;;;;;;;5.97;2.20;;;;;;;14.98;69.89;96693.13;5095206;28;20020;-63
2022/06/15 00:50:24;;;;;;;12.82;2.63;;;;;;;14.85;70.59;96691.16;5095205;28;20024;-63
2022/06/15 00:53:19;;;;;;;6.22;2.70;;;;;;;14.71;71.74;96694.50;5095181;28;20030;-63
2022/06/15 00:55:45;;;;;;;8.32;2.90;;;;;;;14.60;71.19;96692.41;5077757;28;20032;-62
2022/06/15 00:58:13;;;;;;;10.15;2.95;;;;;;;14.61;71.47;96695.91;5095090;28;20012;-63
2022/06/15 01:00:39;;;;;;;7.40;2.47;;;;;;;14.58;71.61;96704.81;5094973;28;20031;-63
2022/06/15 01:03:08;;;;;;;8.75;2.63;;;;;;;14.56;71.61;96697.91;5095013;28;20024;-63
2022/06/15 01:05:47;;;;;;;6.53;2.45;;;;;;;14.56;71.29;96701.41;5094843;28;20031;-63
2022/06/15 01:08:32;;;;;;;6.53;2.50;;;;;;;14.46;71.69;96708.06;5094948;28;20028;-63
2022/06/15 01:11:02;;;;;;;6.15;3.00;;;;;;;14.43;72.22;96703.81;5094755;28;20028;-63
2022/06/15 01:13:49;;;;;;;7.83;2.60;;;;;;;14.45;71.86;96704.56;5094847;28;20048;-62
2022/06/15 01:16:37;;;;;;;8.80;2.65;;;;;;;14.45;72.32;96698.47;5094631;28;20291;-63
2022/06/15 01:19:20;;;;;;;3.60;2.60;;;;;;;14.48;72.57;96703.59;5093940;28;20115;-63
2022/06/15 01:22:16;;;;;;;6.07;2.33;;;;;;;14.42;72.50;96703.91;5094700;28;20051;-63
2022/06/15 01:25:00;;;;;;;9.32;2.40;;;;;;;14.34;72.97;96704.28;5094663;28;20024;-62
2022/06/15 01:27:53;;;;;;;11.20;2.60;;;;;;;14.31;73.32;96707.06;5094632;28;20024;-63
2022/06/15 01:30:28;;;;;;;5.18;2.75;;;;;;;14.28;72.95;96694.91;5094552;28;20106;-63
2022/06/15 01:33:27;;;;;;;6.45;2.55;;;;;;;14.30;72.82;96692.22;5094411;28;20028;-63
2022/06/15 01:36:13;;;;;;;8.32;2.58;;;;;;;14.27;70.98;96693.22;5094263;28;20024;-62
2022/06/15 01:39:00;;;;;;;6.63;2.67;;;;;;;14.24;72.07;96685.50;5094299;28;20036;-62
2022/06/15 01:41:36;;;;;;;9.45;2.30;;;;;;;14.28;72.30;96689.66;5094269;28;20107;-63
2022/06/15 01:44:16;;;;;;;5.30;2.40;;;;;;;14.25;70.39;96684.56;5094265;28;20028;-63
2022/06/15 01:46:47;;;;;;;12.98;2.88;;;;;;;14.33;70.67;96684.16;5094300;28;20024;-63
2022/06/15 01:49:41;;;;;;;9.90;2.33;;;;;;;14.35;69.91;96684.91;5094145;28;20024;-63
2022/06/15 01:52:09;;;;;;;5.63;2.28;;;;;;;14.37;69.12;96686.56;5094197;28;20031;-63
2022/06/15 01:54:47;;;;;;;5.88;2.60;;;;;;;14.45;68.34;96695.84;5093860;28;20058;-63
2022/06/15 01:57:15;;;;;;;3.78;2.10;;;;;;;14.50;69.04;96699.06;5093942;28;20056;-62
2022/06/15 01:59:48;;;;;;;10.07;2.28;;;;;;;14.55;68.79;96693.56;5093818;28;20054;-62
2022/06/15 02:02:32;;;;;;;4.85;2.33;;;;;;;14.61;69.06;96703.78;5093937;28;20089;-63
2022/06/15 02:05:19;;;;;;;6.95;2.20;;;;;;;14.63;70.27;96700.16;5093855;28;20107;-63
2022/06/15 02:07:49;;;;;;;4.18;2.40;;;;;;;14.64;70.73;96698.38;5093752;28;20039;-63
2022/06/15 02:10:20;;;;;;;3.95;2.30;;;;;;;14.58;70.78;96701.31;5093732;28;20115;-63
2022/06/15 02:12:54;;;;;;;6.22;2.47;;;;;;;14.49;70.74;96697.38;5093642;28;20032;-62
2022/06/15 02:15:27;;;;;;;5.65;2.53;;;;;;;14.47;70.63;96702.72;5093694;28;20036;-62
2022/06/15 02:17:55;;;;;;;5.38;2.42;;;;;;;14.45;71.24;96701.94;5093483;28;20504;-63
2022/06/15 02:20:27;;;;;;;9.15;2.63;;;;;;;14.51;71.17;96708.69;5093532;28;20020;-63
2022/06/15 02:22:55;;;;;;;5.13;2.40;;;;;;;14.39;69.18;96707.53;5093695;28;20020;-63
2022/06/15 02:25:24;;;;;;;8.52;2.70;;;;;;;14.24;70.42;96707.38;5093501;28;20027;-63
2022/06/15 02:27:51;;;;;;;6.15;2.13;;;;;;;14.19;71.09;96703.28;5093501;28;20027;-63
2022/06/15 02:30:21;;;;;;;8.20;2.53;;;;;;;14.19;71.40;96705.91;5093329;28;20554;-63
2022/06/15 02:32:48;;;;;;;5.88;2.20;;;;;;;14.20;71.92;96702.31;5093466;28;20028;-63
2022/06/15 02:35:17;;;;;;;7.13;2.60;;;;;;;14.17;72.41;96711.22;5093358;28;20036;-63
2022/06/15 02:37:43;;;;;;;8.18;2.50;;;;;;;14.17;71.66;96713.88;5093322;28;20028;-62
2022/06/15 02:40:13;;;;;;;9.68;2.55;;;;;;;14.12;71.55;96714.09;5093365;28;20106;-62
2022/06/15 02:42:40;;;;;;;11.68;2.53;;;;;;;14.08;72.13;96716.94;5093183;28;20085;-63
2022/06/15 02:45:26;;;;;;;10.70;2.70;;;;;;;14.06;71.81;96714.38;5093181;28;20024;-63
2022/06/15 02:47:52;;;;;;;7.65;2.47;;;;;;;14.06;71.54;96711.75;5093186;28;20496;-63
2022/06/15 02:50:21;;;;;;;6.97;2.28;;;;;;;14.07;71.57;96713.47;5091812;28;20077;-63
2022/06/15 02:52:54;;;;;;;4.50;2.50;;;;;;;14.04;71.55;96713.63;5093403;28;20076;-63
2022/06/15 02:55:23;;;;;;;4.75;2.22;;;;;;;14.03;71.64;96711.94;5093059;28;20387;-63
2022/06/15 02:58:11;;;;;;;3.92;2.08;;;;;;;14.02;71.91;96718.09;5093166;28;20625;-63
2022/06/15 03:00:38;;;;;;;3.92;2.38;;;;;;;14.02;71.47;96726.00;5093126;28;20028;-63
2022/06/15 03:03:04;;;;;;;6.70;2.38;;;;;;;14.02;71.59;96726.00;5093151;28;20020;-62
2022/06/15 03:05:30;;;;;;;6.28;2.40;;;;;;;14.00;71.58;96733.97;5093223;28;20040;-63
2022/06/15 03:07:56;;;;;;;8.90;2.63;;;;;;;14.01;71.25;96732.19;5093155;28;20016;-62
2022/06/15 03:10:22;;;;;;;6.70;2.53;;;;;;;13.97;71.18;96733.28;5092965;28;20024;-63
2022/06/15 03:12:48;;;;;;;7.32;2.53;;;;;;;13.98;71.49;96734.97;5093045;28;20024;-63
2022/06/15 03:15:14;;;;;;;4.68;2.03;;;;;;;13.98;71.44;96735.84;5092908;28;20024;-63
2022/06/15 03:17:40;;;;;;;5.95;2.35;;;;;;;13.96;71.40;96727.16;5092750;28;20109;-62
2022/06/15 03:20:07;;;;;;;10.40;2.83;;;;;;;13.97;71.47;96731.47;5092977;28;20036;-62
2022/06/15 03:22:33;;;;;;;5.43;2.40;;;;;;;13.99;71.67;96736.66;5092881;28;20059;-63
2022/06/15 03:24:59;;;;;;;6.00;2.13;;;;;;;14.06;71.54;96738.06;5093090;28;20024;-63
2022/06/15 03:27:25;;;;;;;4.97;2.20;;;;;;;14.21;71.02;96739.09;5092965;28;20078;-63
2022/06/15 03:29:51;;;;;;;4.03;2.20;;;;;;;14.46;70.13;96743.13;5092955;28;20081;-63
2022/06/15 03:32:17;;;;;;;7.53;2.25;;;;;;;14.74;69.09;96743.50;5092770;28;20024;-63
2022/06/15 03:34:43;;;;;;;4.82;2.20;;;;;;;15.10;68.68;96744.31;5092778;28;20038;-63
2022/06/15 03:37:10;;;;;;;5.03;2.13;;;;;;;15.50;67.51;96743.97;5092748;28;20024;-63
2022/06/15 03:39:36;;;;;;;6.68;2.08;;;;;;;15.90;66.05;96741.72;5092689;28;20057;-62
2022/06/15 03:42:15;;;;;;;2.72;1.75;;;;;;;16.35;64.91;96753.34;5093813;28;20042;-63
2022/06/15 03:44:41;;;;;;;10.07;2.05;;;;;;;16.70;63.20;96746.94;5096479;28;20024;-64
2022/06/15 03:47:28;;;;;;;8.68;2.42;;;;;;;17.14;62.73;96753.13;5096424;28;20030;-63
2022/06/15 03:49:54;;;;;;;7.22;1.48;;;;;;;17.51;61.38;96744.69;5096194;28;20119;-63
2022/06/15 03:52:23;;;;;;;6.53;2.33;;;;;;;17.85;60.16;96747.00;5096494;28;20044;-64
2022/06/15 03:54:49;;;;;;;7.15;1.95;;;;;;;18.16;58.88;96751.19;5096177;28;20177;-64
2022/06/15 03:57:18;;;;;;;2.05;1.55;;;;;;;18.52;57.21;96750.63;5095153;28;20480;-63
2022/06/15 03:59:45;;;;;;;5.65;1.92;;;;;;;18.92;57.80;96760.31;5096154;28;20427;-64
2022/06/15 04:02:11;;;;;;;7.65;1.85;;;;;;;19.23;56.53;96747.63;5096347;28;20017;-63
2022/06/15 04:04:37;;;;;;;4.10;1.55;;;;;;;19.56;56.30;96753.28;5096288;28;20051;-64
2022/06/15 04:07:03;;;;;;;4.25;1.80;;;;;;;19.90;54.90;96756.16;5096181;28;20028;-63
2022/06/15 04:09:30;;;;;;;5.03;1.63;;;;;;;20.14;55.46;96765.97;5096242;28;20020;-64
2022/06/15 04:11:58;;;;;;;5.32;1.88;;;;;;;20.43;54.43;96760.34;5096048;28;20027;-64
2022/06/15 04:14:31;;;;;;;1.60;1.38;;;;;;;20.63;52.37;96760.66;5095867;28;20020;-64
2022/06/15 04:16:57;;;;;;;7.28;1.60;;;;;;;20.89;53.18;96767.59;5095847;28;20059;-63
2022/06/15 04:19:29;;;;;;;5.10;1.77;;;;;;;21.20;52.90;96766.06;5095824;28;20028;-64
2022/06/15 04:21:56;;;;;;;2.63;1.63;;;;;;;21.57;52.43;96765.00;5095839;28;20107;-64
2022/06/15 04:24:23;;;;;;;4.30;1.67;;;;;;;21.83;51.37;96761.25;5095861;28;20028;-63
2022/06/15 04:26:50;;;;;;;3.78;1.70;;;;;;;22.18;50.29;96764.66;5095801;28;20027;-65
2022/06/15 04:29:17;;;;;;;5.50;1.73;;;;;;;22.46;49.09;96765.06;5095774;28;20024;-64
2022/06/15 04:31:43;;;;;;;4.45;1.40;;;;;;;22.64;48.59;96769.84;5095632;28;20035;-63
2022/06/15 04:34:09;;;;;;;1.98;1.10;;;;;;;22.75;46.79;96772.47;5095651;28;20395;-64
2022/06/15 04:36:37;;;;;;;2.53;1.30;;;;;;;23.05;47.76;96769.97;5095707;28;20016;-63
2022/06/15 04:39:03;;;;;;;3.25;1.45;;;;;;;23.31;48.19;96769.56;5095610;28;20077;-64
2022/06/15 04:41:30;;;;;;;10.48;1.73;;;;;;;23.63;45.87;96770.44;5095460;28;20039;-64
2022/06/15 04:43:56;;;;;;;5.38;1.60;;;;;;;23.90;46.85;96761.78;5095392;28;20043;-64
2022/06/15 04:46:22;;;;;;;7.65;1.38;;;;;;;24.23;46.94;96761.59;5095291;28;20020;-64
2022/06/15 04:48:48;;;;;;;3.40;1.60;;;;;;;24.52;47.80;96766.09;5095289;28;20043;-65
2022/06/15 04:51:21;;;;;;;3.60;1.50;;;;;;;24.83;47.01;96773.13;5095343;28;20047;-64
2022/06/15 04:53:48;;;;;;;4.72;1.48;;;;;;;25.12;47.62;96777.59;5094169;28;20027;-64
2022/06/15 04:56:14;;;;;;;3.72;1.50;;;;;;;25.31;46.31;96782.03;5095100;28;20047;-64
2022/06/15 04:58:43;;;;;;;6.80;1.75;;;;;;;25.54;45.38;96779.00;5095311;28;20035;-65
2022/06/15 05:01:11;;;;;;;5.78;1.52;;;;;;;25.78;44.56;96777.66;5095331;28;20433;-64
2022/06/15 05:03:37;;;;;;;2.33;1.50;;;;;;;26.01;44.03;96776.41;5095275;28;20067;-64
2022/06/15 05:06:18;;;;;;;3.78;1.83;;;;;;;26.20;43.99;96776.31;5095041;28;20023;-65
2022/06/15 05:08:43;;;;;;;2.00;1.52;;;;;;;26.11;42.78;96780.72;5095025;28;20044;-65
2022/06/15 05:11:09;;;;;;;5.00;1.60;;;;;;;25.93;42.42;96788.72;5094952;28;20585;-64
2022/06/15 05:13:34;;;;;;;2.50;1.67;;;;;;;25.94;44.07;96785.06;5094787;28;20020;-65
2022/06/15 05:16:00;;;;;;;1.83;1.50;;;;;;;25.94;44.68;96785.06;5094564;28;20020;-65
2022/06/15 05:18:26;;;;;;;2.67;1.60;;;;;;;25.75;45.23;96791.34;5094882;28;20156;-64
2022/06/15 05:20:51;;;;;;;5.00;1.58;;;;;;;25.44;44.93;96788.91;5094738;28;20016;-64
2022/06/15 05:23:17;;;;;;;3.90;1.48;;;;;;;25.15;46.81;96801.41;5094419;28;20016;-64
2022/06/15 05:25:44;;;;;;;2.80;1.40;;;;;;;24.90;46.25;96802.84;5094691;28;20052;-64
2022/06/15 05:28:12;;;;;;;2.58;1.70;;;;;;;24.82;47.67;96803.50;5094485;28;20089;-64
2022/06/15 05:30:38;;;;;;;2.97;1.60;;;;;;;24.78;46.35;96802.97;5094321;28;20077;-64
2022/06/15 05:33:04;;;;;;;3.65;1.55;;;;;;;24.81;47.59;96802.69;5094503;28;20553;-64
2022/06/15 05:35:30;;;;;;;5.93;1.55;;;;;;;25.01;44.93;96810.69;5094335;28;20036;-64
2022/06/15 05:37:56;;;;;;;2.85;1.80;;;;;;;25.26;41.94;96811.09;5094423;28;20024;-64
2022/06/15 05:40:21;;;;;;;5.43;1.83;;;;;;;25.63;40.55;96809.44;5094335;28;20473;-64
2022/06/15 05:42:47;;;;;;;2.05;1.60;;;;;;;26.01;40.60;96813.94;5094175;28;20024;-65
2022/06/15 05:45:13;;;;;;;2.03;1.52;;;;;;;25.65;34.57;96820.03;5094287;28;20105;-65
2022/06/15 05:47:39;;;;;;;3.85;1.77;;;;;;;25.02;36.48;96822.25;5094355;28;20436;-64
2022/06/15 05:50:05;;;;;;;2.78;1.45;;;;;;;24.45;36.83;96821.97;5094180;28;20103;-64
2022/06/15 05:52:31;;;;;;;4.03;1.55;;;;;;;24.08;36.70;96826.06;5094263;28;20035;-64
2022/06/15 05:54:58;;;;;;;6.10;1.60;;;;;;;23.84;37.40;96815.75;5094017;28;20401;-64
2022/06/15 05:57:25;;;;;;;3.20;1.60;;;;;;;23.72;37.36;96820.34;5094035;28;20111;-64
2022/06/15 05:59:52;;;;;;;1.60;1.40;;;;;;;23.63;38.34;96829.16;5094050;28;20379;-64
2022/06/15 06:02:20;;;;;;;3.22;1.63;;;;;;;24.01;41.79;96826.75;5093879;28;20028;-65
2022/06/15 06:04:46;;;;;;;6.25;2.15;;;;;;;24.35;41.34;96832.63;5093610;28;20027;-65
2022/06/15 06:07:12;;;;;;;6.15;1.70;;;;;;;24.78;36.35;96843.09;5093893;28;20378;-65
2022/06/15 06:09:38;;;;;;;2.97;1.50;;;;;;;25.24;35.67;96838.00;5093801;28;20039;-65
2022/06/15 06:12:05;;;;;;;4.20;1.58;;;;;;;25.44;37.55;96843.31;5093768;28;20023;-65
2022/06/15 06:14:31;;;;;;;4.75;1.40;;;;;;;25.67;36.17;96842.97;5093621;28;20099;-65
2022/06/15 06:16:56;;;;;;;3.25;1.95;;;;;;;25.61;36.29;96849.75;5093392;28;20483;-65
2022/06/15 06:19:22;;;;;;;3.83;1.55;;;;;;;25.42;36.56;96855.13;5093548;28;20032;-65
2022/06/15 06:21:48;;;;;;;2.92;1.75;;;;;;;25.33;37.81;96848.81;5093639;28;20023;-65
2022/06/15 06:24:13;;;;;;;4.90;1.83;;;;;;;25.01;37.53;96850.84;5093512;28;20032;-65
2022/06/15 06:26:42;;;;;;;5.28;1.73;;;;;;;25.04;39.30;96853.22;5093529;28;20032;-65
2022/06/15 06:29:11;;;;;;;1.83;1.38;;;;;;;25.47;37.66;96859.06;5093470;28;20095;-64
2022/06/15 06:31:37;;;;;;;5.18;1.40;;;;;;;25.45;36.81;96858.38;5093200;28;20021;-65
2022/06/15 06:34:02;;;;;;;9.20;2.38;;;;;;;25.78;40.34;96858.03;5093343;28;20027;-65
2022/06/15 06:36:32;;;;;;;6.35;1.60;;;;;;;25.78;35.60;96851.81;5093334;28;20020;-65
2022/06/15 06:39:00;;;;;;;3.22;1.70;;;;;;;25.58;36.20;96850.03;5093201;28;20073;-65
2022/06/15 06:41:27;;;;;;;6.90;1.80;;;;;;;25.96;37.24;96843.84;5093090;28;20031;-65
2022/06/15 06:43:55;;;;;;;3.10;1.45;;;;;;;26.64;38.93;96847.16;5091869;28;20024;-65
2022/06/15 06:46:21;;;;;;;3.13;1.67;;;;;;;27.12;34.55;96846.91;5093123;28;20027;-65
2022/06/15 06:48:47;;;;;;;3.00;1.65;;;;;;;27.26;32.53;96853.53;5093237;28;20024;-65
2022/06/15 06:51:14;;;;;;;3.50;1.50;;;;;;;27.80;35.53;96840.97;5093082;28;20024;-66
2022/06/15 06:53:41;;;;;;;9.20;1.95;;;;;;;28.28;35.24;96844.03;5093115;28;20027;-65
2022/06/15 06:56:10;;;;;;;5.22;1.40;;;;;;;28.56;32.50;96846.47;5092889;28;20027;-65
2022/06/15 06:58:36;;;;;;;4.47;1.40;;;;;;;28.50;30.22;96847.13;5093076;28;20138;-65
2022/06/15 07:01:02;;;;;;;2.92;1.40;;;;;;;28.38;28.94;96850.13;5092960;28;20035;-65
2022/06/15 07:03:28;;;;;;;2.25;1.20;;;;;;;28.44;29.04;96843.25;5093098;28;20035;-65
2022/06/15 07:06:06;;;;;;;5.78;1.50;;;;;;;28.75;31.72;96844.47;5092954;28;20128;-65
2022/06/15 07:08:32;;;;;;;3.47;1.33;;;;;;;28.48;28.94;96839.22;5093003;28;20021;-65
2022/06/15 07:10:58;;;;;;;4.88;1.88;;;;;;;28.69;30.89;96843.31;5093024;28;20111;-66
2022/06/15 07:13:23;;;;;;;4.57;1.58;;;;;;;28.50;30.82;96842.59;5093029;28;20108;-65
2022/06/15 07:15:49;;;;;;;4.25;1.30;;;;;;;28.29;31.45;96845.72;5093018;28;20466;-65
2022/06/15 07:18:15;;;;;;;3.53;1.30;;;;;;;28.46;32.39;96849.31;5095952;28;20474;-65
2022/06/15 07:20:40;;;;;;;4.65;1.75;;;;;;;28.74;31.87;96846.31;5096826;28;20488;-65
2022/06/15 07:23:06;;;;;;;3.17;1.63;;;;;;;28.69;30.41;96846.00;5096929;28;20024;-65
2022/06/15 07:25:32;;;;;;;2.47;1.55;;;;;;;28.45;31.27;96857.53;5096830;28;20021;-65
2022/06/15 07:27:58;;;;;;;4.32;1.50;;;;;;;28.24;30.44;96865.00;5096900;28;20055;-65
2022/06/15 07:30:26;;;;;;;5.75;1.45;;;;;;;28.04;30.17;96853.69;5096790;28;20024;-65
2022/06/15 07:32:53;;;;;;;5.10;1.80;;;;;;;27.53;31.86;96856.22;5096914;28;20053;-65
2022/06/15 07:35:27;;;;;;;4.50;1.80;;;;;;;27.27;31.28;96854.41;5096504;28;20491;-65
2022/06/15 07:37:53;;;;;;;4.53;1.42;;;;;;;26.93;32.36;96859.47;5096775;28;20442;-64
2022/06/15 07:40:20;;;;;;;2.75;1.50;;;;;;;26.86;32.08;96863.75;5096756;28;20054;-64
2022/06/15 07:42:47;;;;;;;2.88;1.60;;;;;;;26.83;32.79;96854.19;5096381;28;20023;-64
2022/06/15 07:45:15;;;;;;;3.58;1.40;;;;;;;26.95;31.98;96856.63;5096485;28;20117;-64
2022/06/15 07:50:26;;;;;;;4.78;1.50;;;;;;;27.49;32.13;96855.72;5096921;28;20059;-64
2022/06/15 07:52:53;;;;;;;2.60;1.45;;;;;;;27.58;31.46;96857.47;5096364;28;20032;-65
2022/06/15 07:55:32;;;;;;;1.73;1.48;;;;;;;27.48;30.73;96857.56;5096111;28;20024;-64
2022/06/15 07:58:00;;;;;;;6.57;1.77;;;;;;;27.42;32.71;96866.22;5096374;28;20024;-65
2022/06/15 08:00:27;;;;;;;4.78;1.52;;;;;;;27.11;32.17;96864.84;5096147;28;20081;-64
2022/06/15 08:02:53;;;;;;;4.82;1.50;;;;;;;26.69;32.69;96865.44;5096397;28;20547;-64
2022/06/15 08:05:20;;;;;;;5.65;1.73;;;;;;;26.48;33.93;96858.53;5096148;28;20081;-64
2022/06/15 08:07:49;;;;;;;4.15;1.95;;;;;;;26.34;35.07;96847.31;5094694;28;20027;-64
2022/06/15 08:10:19;;;;;;;4.97;1.83;;;;;;;26.51;35.86;96862.78;5095968;28;20032;-65
2022/06/15 08:12:46;;;;;;;4.32;1.42;;;;;;;26.37;33.77;96862.28;5094816;28;20066;-64
2022/06/15 08:15:12;;;;;;;2.00;1.50;;;;;;;26.09;34.18;96860.41;5095915;28;20489;-64
2022/06/15 08:17:46;;;;;;;2.30;1.73;;;;;;;26.24;34.18;96854.56;5095746;28;20390;-65
2022/06/15 08:20:13;;;;;;;1.92;1.20;;;;;;;26.29;34.50;96846.94;5095766;28;20024;-64
2022/06/15 08:22:42;;;;;;;4.88;1.83;;;;;;;26.45;34.51;96851.63;5095861;28;20020;-64
2022/06/15 08:25:12;;;;;;;4.60;1.60;;;;;;;26.43;33.83;96850.09;5095767;28;20377;-64
2022/06/15 08:27:37;;;;;;;8.93;1.80;;;;;;;26.58;36.47;96845.91;5095566;28;20020;-64
2022/06/15 08:30:08;;;;;;;8.77;1.65;;;;;;;26.71;34.18;96850.03;5095504;28;20020;-65
2022/06/15 08:32:34;;;;;;;3.67;2.03;;;;;;;26.74;32.95;96853.28;5095523;28;20107;-64
2022/06/15 08:35:00;;;;;;;8.02;1.75;;;;;;;27.08;33.31;96854.41;5095619;28;20031;-64
2022/06/15 08:37:28;;;;;;;5.10;1.58;;;;;;;27.00;32.90;96849.81;5095587;28;20027;-65
2022/06/15 08:39:54;;;;;;;3.17;1.83;;;;;;;26.56;35.27;96861.31;5095522;28;20028;-64
2022/06/15 08:42:26;;;;;;;3.13;1.75;;;;;;;26.09;34.06;96856.88;5095442;28;20043;-64
2022/06/15 08:45:08;;;;;;;5.78;2.08;;;;;;;25.77;36.56;96859.03;5095329;28;20024;-64
2022/06/15 08:48:12;;;;;;;3.08;1.73;;;;;;;25.84;35.99;96852.09;5095470;28;20032;-64
2022/06/15 08:50:49;;;;;;;7.63;1.90;;;;;;;26.46;38.37;96855.16;5095299;28;20051;-64
2022/06/15 08:53:30;;;;;;;6.88;2.72;;;;;;;26.72;36.73;96857.94;5095418;28;20078;-65
2022/06/15 08:56:14;;;;;;;5.63;2.10;;;;;;;26.83;38.32;96859.56;5095244;28;20466;-64
2022/06/15 08:58:44;;;;;;;5.25;2.50;;;;;;;26.62;39.04;96865.22;5095007;28;20081;-64
2022/06/15 09:01:30;;;;;;;6.68;2.78;;;;;;;26.35;40.85;96849.03;5095174;28;20039;-64
2022/06/15 09:04:08;;;;;;;5.68;2.67;;;;;;;26.81;41.42;96864.22;5094951;28;20028;-64
2022/06/15 09:06:42;;;;;;;3.35;2.50;;;;;;;27.20;39.41;96863.06;5095112;28;20039;-64
2022/06/15 09:09:23;;;;;;;9.50;2.70;;;;;;;27.86;39.92;96867.19;5094898;28;20024;-64
2022/06/15 09:15:02;;;;;;;6.18;2.30;;;;;;;28.24;34.67;96864.19;5094797;28;20084;-64
2022/06/15 09:17:30;;;;;;;6.18;2.42;;;;;;;27.77;34.70;96862.78;5094620;28;20170;-64
2022/06/15 09:20:08;;;;;;;6.22;2.47;;;;;;;27.24;37.12;96867.13;5094792;28;20035;-64
2022/06/15 09:23:05;;;;;;;4.22;2.50;;;;;;;27.38;36.42;96871.09;5094699;28;20384;-64
2022/06/15 09:25:38;;;;;;;4.05;2.38;;;;;;;27.41;35.96;96866.38;5094736;28;20055;-64
2022/06/15 09:28:18;;;;;;;5.65;2.17;;;;;;;26.93;36.95;96863.97;5094743;28;20081;-64
2022/06/15 09:30:44;;;;;;;5.57;2.00;;;;;;;26.15;37.75;96871.56;5094821;28;20519;-64
2022/06/15 09:33:19;;;;;;;3.83;1.90;;;;;;;25.82;38.77;96859.41;5094389;28;20077;-64
2022/06/15 09:35:56;;;;;;;3.72;2.10;;;;;;;25.72;39.48;96867.50;5094292;28;20031;-64
2022/06/15 09:38:22;;;;;;;3.75;1.90;;;;;;;25.33;41.56;96871.09;5094449;28;20024;-63
2022/06/15 09:40:55;;;;;;;5.88;2.05;;;;;;;25.24;40.89;96870.13;5093993;28;20069;-64
2022/06/15 09:43:23;;;;;;;2.70;2.08;;;;;;;25.57;42.99;96868.91;5094315;28;20111;-64
2022/06/15 09:45:49;;;;;;;8.50;2.42;;;;;;;25.98;42.33;96860.63;5094137;28;20024;-64
2022/06/15 09:48:33;;;;;;;3.85;2.20;;;;;;;26.31;46.27;96857.53;5094102;28;20061;-64
2022/06/15 09:51:14;;;;;;;7.55;2.13;;;;;;;26.69;42.24;96860.06;5094194;28;20123;-64
2022/06/15 09:53:52;;;;;;;12.35;2.70;;;;;;;26.74;40.80;96860.47;5094157;28;20032;-64
2022/06/15 09:56:20;;;;;;;7.13;2.40;;;;;;;26.80;41.76;96856.31;5094013;28;20102;-64
2022/06/15 09:59:05;;;;;;;5.80;2.30;;;;;;;26.60;38.31;96856.47;5093922;28;20145;-64
2022/06/15 10:01:36;;;;;;;2.40;1.80;;;;;;;26.11;36.67;96861.13;5094074;28;20477;-63
2022/06/15 10:04:04;;;;;;;8.00;2.20;;;;;;;25.82;38.88;96861.25;5094002;28;20035;-63
2022/06/15 10:06:45;;;;;;;3.10;1.98;;;;;;;25.87;41.39;96864.34;5093907;28;20128;-64
2022/06/15 10:09:17;;;;;;;8.25;2.00;;;;;;;26.07;40.58;96857.03;5093895;28;20044;-64
2022/06/15 10:11:47;;;;;;;4.10;2.53;;;;;;;26.31;40.62;96854.84;5093813;28;20466;-63
2022/06/15 10:14:39;;;;;;;5.95;1.88;;;;;;;26.56;36.00;96841.69;5093592;28;20024;-63
2022/06/15 10:17:18;;;;;;;3.00;1.98;;;;;;;26.86;37.95;96839.63;5089481;28;20067;-64
2022/06/15 10:19:47;;;;;;;3.45;2.05;;;;;;;27.10;39.56;96846.22;5093706;28;20465;-64
2022/06/15 10:22:23;;;;;;;5.53;1.90;;;;;;;26.84;35.83;96847.81;5093541;28;20031;-64
2022/06/15 10:24:50;;;;;;;4.63;1.77;;;;;;;26.48;37.79;96845.97;5093519;28;20024;-63
2022/06/15 10:27:16;;;;;;;5.30;2.45;;;;;;;26.34;40.27;96847.31;5093641;28;20021;-63
2022/06/15 10:29:43;;;;;;;3.90;2.17;;;;;;;26.33;40.72;96845.66;5093615;28;20031;-64
2022/06/15 10:32:08;;;;;;;8.65;2.60;;;;;;;26.36;39.50;96844.50;5093469;28;20028;-64
2022/06/15 10:34:56;;;;;;;6.00;2.40;;;;;;;26.53;38.07;96841.97;5093385;28;20084;-64
2022/06/15 10:37:27;;;;;;;8.00;2.33;;;;;;;26.74;38.26;96841.69;5093671;28;20020;-64
2022/06/15 10:39:58;;;;;;;6.43;2.05;;;;;;;26.57;37.79;96838.84;5093523;28;20071;-63
2022/06/15 10:42:43;;;;;;;4.57;2.05;;;;;;;26.47;36.75;96835.41;5093441;28;20474;-63
2022/06/15 10:45:33;;;;;;;7.20;2.25;;;;;;;26.60;39.08;96835.88;5093461;28;20081;-63
2022/06/15 10:48:12;;;;;;;4.57;2.20;;;;;;;26.85;39.56;96832.56;5092066;28;20024;-63
2022/06/15 10:50:49;;;;;;;3.10;2.17;;;;;;;27.26;39.85;96829.38;5092991;28;20039;-64
2022/06/15 10:53:27;;;;;;;5.10;2.08;;;;;;;27.45;35.92;96827.50;5092754;28;20035;-64
2022/06/15 11:02:06;;;;;;;7.00;1.90;;;;;;;27.42;33.52;96831.31;5093189;28;20035;-64
2022/06/15 11:04:49;;;;;;;14.02;2.35;;;;;;;27.61;36.56;96826.75;5093125;28;20535;-63
2022/06/15 11:07:21;;;;;;;6.07;2.33;;;;;;;27.62;36.65;96825.75;5093357;28;20036;-63
2022/06/15 11:09:55;;;;;;;3.78;2.15;;;;;;;27.80;37.15;96832.91;5093081;28;20036;-63
2022/06/15 11:12:45;;;;;;;3.67;2.05;;;;;;;27.49;36.33;96824.34;5093113;28;20478;-64
2022/06/15 11:15:14;;;;;;;8.02;2.00;;;;;;;27.00;39.60;96838.28;5092996;28;20389;-63
2022/06/15 11:18:01;;;;;;;6.90;2.10;;;;;;;26.63;38.22;96832.03;5092808;28;20052;-64
2022/06/15 11:20:38;;;;;;;6.43;2.03;;;;;;;26.27;38.48;96827.44;5093004;28;20031;-63
2022/06/15 11:23:14;;;;;;;4.88;2.00;;;;;;;26.06;38.73;96833.91;5092975;28;20051;-64
2022/06/15 11:25:46;;;;;;;2.50;2.00;;;;;;;26.06;37.84;96827.72;5093090;28;20517;-63
2022/06/15 11:28:28;;;;;;;3.35;2.00;;;;;;;26.08;38.52;96825.72;5092821;28;20115;-63
2022/06/15 11:31:15;;;;;;;3.47;2.15;;;;;;;26.23;40.26;96823.38;5092911;28;20028;-64
2022/06/15 11:34:15;;;;;;;5.93;1.77;;;;;;;26.28;40.12;96822.94;5092856;28;20028;-64
2022/06/15 11:36:51;;;;;;;3.20;2.28;;;;;;;26.47;38.95;96820.16;5078225;28;20036;-64
2022/06/15 11:39:33;;;;;;;3.22;2.13;;;;;;;26.63;39.69;96829.34;5093010;28;20052;-63
2022/06/15 11:42:00;;;;;;;5.65;1.75;;;;;;;26.44;39.74;96825.84;5092772;28;20020;-63
2022/06/15 11:44:31;;;;;;;6.63;1.77;;;;;;;26.51;37.00;96831.41;5092719;28;20044;-64
2022/06/15 11:47:18;;;;;;;8.90;1.90;;;;;;;26.66;40.42;96829.03;5092740;28;20024;-63
2022/06/15 11:49:58;;;;;;;4.97;1.95;;;;;;;26.73;38.01;96827.44;5092675;28;20110;-63
2022/06/15 11:52:40;;;;;;;3.97;1.95;;;;;;;26.69;37.77;96817.16;5092428;28;20038;-63
2022/06/15 11:55:34;;;;;;;3.70;2.22;;;;;;;26.57;38.99;96827.28;5092422;28;20043;-63
2022/06/15 11:58:18;;;;;;;4.45;2.30;;;;;;;26.60;38.20;96827.81;5092681;28;20040;-63
2022/06/15 12:00:54;;;;;;;4.95;1.75;;;;;;;26.43;37.85;96826.81;5092571;28;20063;-64
2022/06/15 12:03:40;;;;;;;6.18;2.15;;;;;;;26.30;37.85;96824.50;5094013;28;20549;-64
2022/06/15 12:06:06;;;;;;;2.60;1.77;;;;;;;25.82;39.55;96829.09;5096189;28;20113;-64